Time,TemperatureF,DewpointF,PressureIn,WindDirection,WindDirectionDegrees,WindSpeedMPH,WindSpeedGustMPH,Humidity,HourlyPrecipIn,Conditions,Clouds,dailyrainin,SoftwareType,DateUTC
2013-05-30 00:06:00,60.3,60.0,30.00,SSW,193,2.0,-999.0,97,-99.99,,,0.00,weatherlink.com 1.10,2013-05-30 04:06:00,
2013-05-30 00:21:00,60.2,59.0,30.00,SSW,193,0.0,-999.0,97,-99.99,,,0.00,weatherlink.com 1.10,2013-05-30 04:21:00,
2013-05-30 00:36:00,60.1,59.0,30.00,SSW,193,0.0,-999.0,97,-99.99,,,0.00,weatherlink.com 1.10,2013-05-30 04:36:00,
2013-05-30 00:51:00,59.4,59.0,30.01,SSW,193,0.0,-999.0,97,-99.99,,,0.00,weatherlink.com 1.10,2013-05-30 04:51:00,
2013-05-30 01:06:00,59.0,58.0,30.01,SSW,193,0.0,-999.0,97,-99.99,,,0.00,weatherlink.com 1.10,2013-05-30 05:06:00,
2013-05-30 01:21:00,59.6,59.0,30.01,SSW,193,0.0,-999.0,97,-99.99,,,0.00,weatherlink.com 1.10,2013-05-30 05:21:00,
2013-05-30 01:36:00,59.7,59.0,30.01,SSW,193,0.0,-999.0,97,-99.99,,,0.00,weatherlink.com 1.10,2013-05-30 05:36:00,
2013-05-30 01:51:00,59.0,58.0,30.01,SSW,193,0.0,-999.0,97,-99.99,,,0.00,weatherlink.com 1.10,2013-05-30 05:51:00,
2013-05-30 02:06:00,59.0,58.0,30.02,SSW,193,0.0,-999.0,97,-99.99,,,0.00,weatherlink.com 1.10,2013-05-30 06:06:00,
2013-05-30 02:21:00,59.2,58.0,30.02,SSW,193,0.0,-999.0,97,-99.99,,,0.00,weatherlink.com 1.10,2013-05-30 06:21:00,
2013-05-30 02:36:00,59.0,58.0,30.02,SSW,193,0.0,-999.0,97,-99.99,,,0.00,weatherlink.com 1.10,2013-05-30 06:36:00,
2013-05-30 02:51:00,59.2,58.0,30.01,SSW,192,0.0,-999.0,97,-99.99,,,0.00,weatherlink.com 1.10,2013-05-30 06:51:00,
2013-05-30 03:06:00,58.6,58.0,30.01,SSW,192,0.0,-999.0,97,-99.99,,,0.01,weatherlink.com 1.10,2013-05-30 07:06:00,
2013-05-30 03:21:00,58.3,58.0,30.02,SSW,192,0.0,-999.0,97,-99.99,,,0.01,weatherlink.com 1.10,2013-05-30 07:21:00,
2013-05-30 03:36:00,58.4,58.0,30.02,SSW,193,0.0,-999.0,97,-99.99,,,0.01,weatherlink.com 1.10,2013-05-30 07:36:00,
2013-05-30 03:52:00,58.0,57.0,30.02,SSW,193,0.0,-999.0,97,-99.99,,,0.01,weatherlink.com 1.10,2013-05-30 07:52:00,
2013-05-30 04:07:00,58.5,58.0,30.02,SSW,193,0.0,-999.0,97,-99.99,,,0.01,weatherlink.com 1.10,2013-05-30 08:07:00,
2013-05-30 04:22:00,58.4,58.0,30.02,SSW,193,2.0,-999.0,97,-99.99,,,0.01,weatherlink.com 1.10,2013-05-30 08:22:00,
2013-05-30 04:37:00,57.7,57.0,30.02,SSW,193,0.0,-999.0,97,-99.99,,,0.01,weatherlink.com 1.10,2013-05-30 08:37:00,
2013-05-30 04:52:00,57.5,57.0,30.02,SSW,193,0.0,-999.0,97,-99.99,,,0.01,weatherlink.com 1.10,2013-05-30 08:52:00,
2013-05-30 05:07:00,58.1,57.0,30.02,SSW,197,0.0,-999.0,97,-99.99,,,0.01,weatherlink.com 1.10,2013-05-30 09:07:00,
2013-05-30 05:22:00,58.3,58.0,30.03,SSW,195,0.0,-999.0,97,-99.99,,,0.01,weatherlink.com 1.10,2013-05-30 09:22:00,
2013-05-30 05:37:00,58.2,57.0,30.04,SSW,194,0.0,-999.0,97,-99.99,,,0.01,weatherlink.com 1.10,2013-05-30 09:37:00,
2013-05-30 05:52:00,58.2,57.0,30.04,South,187,0.0,-999.0,97,-99.99,,,0.01,weatherlink.com 1.10,2013-05-30 09:52:00,
2013-05-30 06:07:00,58.0,57.0,30.05,South,184,0.0,-999.0,97,-99.99,,,0.01,weatherlink.com 1.10,2013-05-30 10:07:00,
2013-05-30 06:22:00,58.0,57.0,30.05,WNW,292,2.0,-999.0,97,-99.99,,,0.01,weatherlink.com 1.10,2013-05-30 10:22:00,
2013-05-30 06:37:00,59.0,59.0,30.06,North,10,2.0,-999.0,98,-99.99,,,0.01,weatherlink.com 1.10,2013-05-30 10:37:00,
2013-05-30 06:52:00,59.0,59.0,30.06,ESE,116,0.0,-999.0,98,-99.99,,,0.01,weatherlink.com 1.10,2013-05-30 10:52:00,
2013-05-30 07:07:00,59.0,59.0,30.06,SSW,203,0.0,-999.0,98,-99.99,,,0.01,weatherlink.com 1.10,2013-05-30 11:07:00,
2013-05-30 07:22:00,59.7,59.0,30.06,ESE,111,2.0,-999.0,98,-99.99,,,0.01,weatherlink.com 1.10,2013-05-30 11:22:00,
2013-05-30 07:37:00,60.2,59.0,30.07,ESE,105,0.0,-999.0,97,-99.99,,,0.01,weatherlink.com 1.10,2013-05-30 11:37:00,
2013-05-30 07:52:00,61.5,61.0,30.06,South,190,0.0,-999.0,98,-99.99,,,0.01,weatherlink.com 1.10,2013-05-30 11:52:00,
2013-05-30 08:07:00,62.7,62.0,30.07,South,190,0.0,-999.0,98,-99.99,,,0.01,weatherlink.com 1.10,2013-05-30 12:07:00,
2013-05-30 08:22:00,65.6,65.0,30.06,NNE,32,2.0,-999.0,98,-99.99,,,0.01,weatherlink.com 1.10,2013-05-30 12:22:00,
2013-05-30 08:37:00,65.9,65.0,30.06,NNE,32,0.0,-999.0,97,-99.99,,,0.01,weatherlink.com 1.10,2013-05-30 12:37:00,
2013-05-30 08:52:00,67.6,66.0,30.06,NE,55,0.0,-999.0,95,-99.99,,,0.01,weatherlink.com 1.10,2013-05-30 12:52:00,
2013-05-30 09:07:00,69.1,67.0,30.06,NE,45,0.0,-999.0,93,-99.99,,,0.01,weatherlink.com 1.10,2013-05-30 13:07:00,
2013-05-30 09:22:00,70.5,67.0,30.06,NE,51,2.0,-999.0,89,-99.99,,,0.01,weatherlink.com 1.10,2013-05-30 13:22:00,
2013-05-30 09:37:00,72.2,68.0,30.06,East,80,2.0,-999.0,86,-99.99,,,0.01,weatherlink.com 1.10,2013-05-30 13:37:00,
2013-05-30 09:52:00,73.9,68.0,30.06,NNE,15,5.0,-999.0,81,-99.99,,,0.01,weatherlink.com 1.10,2013-05-30 13:52:00,
2013-05-30 10:08:00,74.9,65.0,30.06,North,353,5.0,-999.0,72,-99.99,,,0.01,weatherlink.com 1.10,2013-05-30 14:08:00,
2013-05-30 10:23:00,76.7,68.0,30.06,NE,45,3.0,-999.0,75,-99.99,,,0.01,weatherlink.com 1.10,2013-05-30 14:23:00,
2013-05-30 10:38:00,76.7,66.0,30.07,WSW,241,3.0,-999.0,69,-99.99,,,0.01,weatherlink.com 1.10,2013-05-30 14:38:00,
2013-05-30 10:53:00,75.6,65.0,30.06,NNW,338,9.0,-999.0,69,-99.99,,,0.01,weatherlink.com 1.10,2013-05-30 14:53:00,
2013-05-30 11:08:00,75.8,64.0,30.07,South,171,0.0,-999.0,68,-99.99,,,0.01,weatherlink.com 1.10,2013-05-30 15:08:00,
2013-05-30 11:23:00,76.7,65.0,30.07,WNW,284,1.0,-999.0,67,-99.99,,,0.01,weatherlink.com 1.10,2013-05-30 15:23:00,
2013-05-30 11:38:00,78.6,69.0,30.06,SSW,193,0.0,-999.0,72,-99.99,,,0.01,weatherlink.com 1.10,2013-05-30 15:38:00,
2013-05-30 11:53:00,79.1,67.0,30.05,SSW,207,0.0,-999.0,66,-99.99,,,0.01,weatherlink.com 1.10,2013-05-30 15:53:00,
2013-05-30 12:08:00,78.9,67.0,30.06,SW,229,3.0,-999.0,66,-99.99,,,0.01,weatherlink.com 1.10,2013-05-30 16:08:00,
2013-05-30 12:23:00,79.1,67.0,30.06,NW,305,3.0,-999.0,66,-99.99,,,0.01,weatherlink.com 1.10,2013-05-30 16:23:00,
2013-05-30 12:38:00,79.6,68.0,30.05,North,1,0.0,-999.0,68,-99.99,,,0.01,weatherlink.com 1.10,2013-05-30 16:38:00,
2013-05-30 12:53:00,80.0,67.0,30.05,NW,307,2.0,-999.0,64,-99.99,,,0.01,weatherlink.com 1.10,2013-05-30 16:53:00,
2013-05-30 13:08:00,80.4,66.0,30.04,NW,308,6.0,-999.0,61,-99.99,,,0.01,weatherlink.com 1.10,2013-05-30 17:08:00,
2013-05-30 13:23:00,80.7,66.0,30.04,NNE,15,9.0,-999.0,61,-99.99,,,0.01,weatherlink.com 1.10,2013-05-30 17:23:00,
2013-05-30 13:38:00,80.7,68.0,30.03,North,351,0.0,-999.0,65,-99.99,,,0.01,weatherlink.com 1.10,2013-05-30 17:38:00,
2013-05-30 13:53:00,81.8,65.0,30.03,South,187,7.0,-999.0,58,-99.99,,,0.01,weatherlink.com 1.10,2013-05-30 17:53:00,
2013-05-30 14:08:00,81.6,65.0,30.03,North,10,0.0,-999.0,57,-99.99,,,0.01,weatherlink.com 1.10,2013-05-30 18:08:00,
2013-05-30 14:23:00,81.6,65.0,30.03,NW,314,1.0,-999.0,57,-99.99,,,0.01,weatherlink.com 1.10,2013-05-30 18:23:00,
2013-05-30 14:38:00,81.6,65.0,30.03,NW,311,0.0,-999.0,57,-99.99,,,0.01,weatherlink.com 1.10,2013-05-30 18:38:00,
2013-05-30 14:53:00,82.9,68.0,30.02,South,186,4.0,-999.0,62,-99.99,,,0.01,weatherlink.com 1.10,2013-05-30 18:53:00,
2013-05-30 15:08:00,82.7,67.0,30.02,WNW,301,0.0,-999.0,59,-99.99,,,0.01,weatherlink.com 1.10,2013-05-30 19:08:00,
2013-05-30 15:23:00,83.5,66.0,30.02,North,357,3.0,-999.0,56,-99.99,,,0.01,weatherlink.com 1.10,2013-05-30 19:23:00,
2013-05-30 15:38:00,83.2,65.0,30.01,NNW,338,4.0,-999.0,55,-99.99,,,0.01,weatherlink.com 1.10,2013-05-30 19:38:00,
2013-05-30 15:53:00,83.2,66.0,30.01,NNW,332,6.0,-999.0,57,-99.99,,,0.01,weatherlink.com 1.10,2013-05-30 19:53:00,
2013-05-30 16:08:00,83.2,66.0,30.00,North,350,0.0,-999.0,57,-99.99,,,0.01,weatherlink.com 1.10,2013-05-30 20:08:00,
2013-05-30 16:23:00,83.0,67.0,30.00,NNW,329,0.0,-999.0,58,-99.99,,,0.01,weatherlink.com 1.10,2013-05-30 20:23:00,
2013-05-30 16:38:00,84.1,68.0,30.00,West,262,0.0,-999.0,59,-99.99,,,0.01,weatherlink.com 1.10,2013-05-30 20:38:00,
2013-05-30 16:53:00,84.0,67.0,30.00,WNW,298,0.0,-999.0,57,-99.99,,,0.01,weatherlink.com 1.10,2013-05-30 20:53:00,
2013-05-30 17:08:00,83.7,67.0,29.99,NW,310,0.0,-999.0,58,-99.99,,,0.01,weatherlink.com 1.10,2013-05-30 21:08:00,
2013-05-30 17:23:00,83.8,66.0,30.00,North,10,0.0,-999.0,56,-99.99,,,0.01,weatherlink.com 1.10,2013-05-30 21:23:00,
2013-05-30 17:38:00,84.1,65.0,29.99,WNW,298,0.0,-999.0,53,-99.99,,,0.01,weatherlink.com 1.10,2013-05-30 21:38:00,
2013-05-30 17:53:00,84.2,64.0,29.99,WNW,301,0.0,-999.0,51,-99.99,,,0.01,weatherlink.com 1.10,2013-05-30 21:53:00,
2013-05-30 18:08:00,84.4,64.0,29.98,WSW,256,0.0,-999.0,51,-99.99,,,0.01,weatherlink.com 1.10,2013-05-30 22:08:00,
2013-05-30 18:23:00,84.0,64.0,29.98,NW,307,1.0,-999.0,51,-99.99,,,0.01,weatherlink.com 1.10,2013-05-30 22:23:00,
2013-05-30 18:39:00,83.6,65.0,29.99,NW,315,0.0,-999.0,53,-99.99,,,0.01,weatherlink.com 1.10,2013-05-30 22:39:00,
2013-05-30 18:54:00,83.1,64.0,29.99,West,266,0.0,-999.0,53,-99.99,,,0.01,weatherlink.com 1.10,2013-05-30 22:54:00,
2013-05-30 19:09:00,82.3,64.0,29.99,WSW,257,0.0,-999.0,55,-99.99,,,0.01,weatherlink.com 1.10,2013-05-30 23:09:00,
2013-05-30 19:24:00,79.8,64.0,29.99,WSW,244,1.0,-999.0,58,-99.99,,,0.01,weatherlink.com 1.10,2013-05-30 23:24:00,
2013-05-30 19:39:00,78.7,64.0,30.00,WSW,244,0.0,-999.0,61,-99.99,,,0.01,weatherlink.com 1.10,2013-05-30 23:39:00,
2013-05-30 19:54:00,78.2,63.0,30.00,WSW,247,0.0,-999.0,59,-99.99,,,0.01,weatherlink.com 1.10,2013-05-30 23:54:00,
2013-05-30 20:09:00,78.5,62.0,30.00,WSW,247,0.0,-999.0,57,-99.99,,,0.01,weatherlink.com 1.10,2013-05-31 00:09:00,
2013-05-30 20:24:00,76.4,63.0,30.00,WSW,257,0.0,-999.0,64,-99.99,,,0.01,weatherlink.com 1.10,2013-05-31 00:24:00,
2013-05-30 20:39:00,73.5,64.0,30.01,WSW,255,0.0,-999.0,71,-99.99,,,0.01,weatherlink.com 1.10,2013-05-31 00:39:00,
2013-05-30 20:54:00,72.3,64.0,30.01,WSW,255,0.0,-999.0,74,-99.99,,,0.01,weatherlink.com 1.10,2013-05-31 00:54:00,
2013-05-30 21:09:00,71.3,63.0,30.01,WSW,255,0.0,-999.0,76,-99.99,,,0.01,weatherlink.com 1.10,2013-05-31 01:09:00,
2013-05-30 21:24:00,70.1,63.0,30.01,WSW,255,0.0,-999.0,79,-99.99,,,0.01,weatherlink.com 1.10,2013-05-31 01:24:00,
2013-05-30 21:39:00,68.9,63.0,30.02,WSW,255,0.0,-999.0,80,-99.99,,,0.01,weatherlink.com 1.10,2013-05-31 01:39:00,
2013-05-30 21:54:00,69.4,63.0,30.02,WSW,255,0.0,-999.0,79,-99.99,,,0.01,weatherlink.com 1.10,2013-05-31 01:54:00,
2013-05-30 22:09:00,68.1,62.0,30.02,WSW,255,0.0,-999.0,81,-99.99,,,0.01,weatherlink.com 1.10,2013-05-31 02:09:00,
2013-05-30 22:24:00,67.2,62.0,30.03,WSW,255,0.0,-999.0,83,-99.99,,,0.01,weatherlink.com 1.10,2013-05-31 02:24:00,
2013-05-30 22:39:00,66.5,62.0,30.03,SW,224,2.0,-999.0,84,-99.99,,,0.01,weatherlink.com 1.10,2013-05-31 02:39:00,
2013-05-30 22:54:00,65.5,62.0,30.04,SW,224,0.0,-999.0,87,-99.99,,,0.01,weatherlink.com 1.10,2013-05-31 02:54:00,
2013-05-30 23:09:00,65.2,61.0,30.04,SW,224,0.0,-999.0,87,-99.99,,,0.01,weatherlink.com 1.10,2013-05-31 03:09:00,
2013-05-30 23:24:00,64.7,61.0,30.04,SW,224,0.0,-999.0,88,-99.99,,,0.01,weatherlink.com 1.10,2013-05-31 03:24:00,
2013-05-30 23:39:00,63.8,61.0,30.04,SW,224,0.0,-999.0,89,-99.99,,,0.01,weatherlink.com 1.10,2013-05-31 03:39:00,
2013-05-30 23:54:00,63.4,61.0,30.05,SW,224,0.0,-999.0,90,-99.99,,,0.01,weatherlink.com 1.10,2013-05-31 03:54:00,